sensor_id;sensor_type;location;lat;lon;timestamp;temperature;humidity
26081;DHT22;13991;51.174;4.438;2023-03-16T00:01:03;7.90;99.90
26081;DHT22;13991;51.174;4.438;2023-03-16T00:03:29;7.70;99.90
26081;DHT22;13991;51.174;4.438;2023-03-16T00:05:55;7.80;99.90
26081;DHT22;13991;51.174;4.438;2023-03-16T00:08:21;7.80;99.90
26081;DHT22;13991;51.174;4.438;2023-03-16T00:10:47;7.70;99.90
26081;DHT22;13991;51.174;4.438;2023-03-16T00:13:13;7.70;99.90
26081;DHT22;13991;51.174;4.438;2023-03-16T00:15:40;7.60;99.90
26081;DHT22;13991;51.174;4.438;2023-03-16T00:18:05;7.70;99.90
26081;DHT22;13991;51.174;4.438;2023-03-16T00:20:31;7.70;99.90
26081;DHT22;13991;51.174;4.438;2023-03-16T00:22:58;7.70;99.90
26081;DHT22;13991;51.174;4.438;2023-03-16T00:25:24;7.70;99.90
26081;DHT22;13991;51.174;4.438;2023-03-16T00:27:49;7.70;99.90
26081;DHT22;13991;51.174;4.438;2023-03-16T00:30:15;7.60;99.90
26081;DHT22;13991;51.174;4.438;2023-03-16T00:32:41;7.60;99.90
26081;DHT22;13991;51.174;4.438;2023-03-16T00:35:07;7.50;99.90
26081;DHT22;13991;51.174;4.438;2023-03-16T00:37:33;7.60;99.90
26081;DHT22;13991;51.174;4.438;2023-03-16T00:39:59;7.70;99.90
26081;DHT22;13991;51.174;4.438;2023-03-16T00:42:27;7.70;99.90
26081;DHT22;13991;51.174;4.438;2023-03-16T00:44:57;7.80;99.90
26081;DHT22;13991;51.174;4.438;2023-03-16T00:47:25;7.80;99.90
26081;DHT22;13991;51.174;4.438;2023-03-16T00:49:51;7.80;99.90
26081;DHT22;13991;51.174;4.438;2023-03-16T00:52:16;7.70;99.90
26081;DHT22;13991;51.174;4.438;2023-03-16T00:54:44;7.70;99.90
26081;DHT22;13991;51.174;4.438;2023-03-16T00:57:14;7.70;99.90
26081;DHT22;13991;51.174;4.438;2023-03-16T00:59:41;7.70;99.90
26081;DHT22;13991;51.174;4.438;2023-03-16T01:02:08;7.60;99.90
26081;DHT22;13991;51.174;4.438;2023-03-16T01:04:34;7.60;99.90
26081;DHT22;13991;51.174;4.438;2023-03-16T01:07:04;7.70;99.90
26081;DHT22;13991;51.174;4.438;2023-03-16T01:09:30;7.70;99.90
26081;DHT22;13991;51.174;4.438;2023-03-16T01:12:19;7.60;99.90
26081;DHT22;13991;51.174;4.438;2023-03-16T01:14:45;7.60;99.90
26081;DHT22;13991;51.174;4.438;2023-03-16T01:17:11;7.50;99.90
26081;DHT22;13991;51.174;4.438;2023-03-16T01:19:39;7.50;99.90
26081;DHT22;13991;51.174;4.438;2023-03-16T01:22:06;7.40;99.90
26081;DHT22;13991;51.174;4.438;2023-03-16T01:24:33;7.50;99.90
26081;DHT22;13991;51.174;4.438;2023-03-16T01:27:02;7.50;99.90
26081;DHT22;13991;51.174;4.438;2023-03-16T01:29:29;7.40;99.90
26081;DHT22;13991;51.174;4.438;2023-03-16T01:31:55;7.40;99.90
26081;DHT22;13991;51.174;4.438;2023-03-16T01:34:21;7.40;99.90
26081;DHT22;13991;51.174;4.438;2023-03-16T01:36:48;7.50;99.90
26081;DHT22;13991;51.174;4.438;2023-03-16T01:39:15;7.50;99.90
26081;DHT22;13991;51.174;4.438;2023-03-16T01:41:42;7.50;99.90
26081;DHT22;13991;51.174;4.438;2023-03-16T01:44:13;7.50;99.90
26081;DHT22;13991;51.174;4.438;2023-03-16T01:46:39;7.50;99.90
26081;DHT22;13991;51.174;4.438;2023-03-16T01:49:34;7.40;99.90
26081;DHT22;13991;51.174;4.438;2023-03-16T01:52:07;7.50;99.90
26081;DHT22;13991;51.174;4.438;2023-03-16T01:57:23;7.70;99.90
26081;DHT22;13991;51.174;4.438;2023-03-16T02:02:26;7.50;99.90
26081;DHT22;13991;51.174;4.438;2023-03-16T02:05:01;7.50;99.90
26081;DHT22;13991;51.174;4.438;2023-03-16T02:07:31;7.50;99.90
26081;DHT22;13991;51.174;4.438;2023-03-16T02:10:00;7.50;99.90
26081;DHT22;13991;51.174;4.438;2023-03-16T02:12:27;7.60;99.90
26081;DHT22;13991;51.174;4.438;2023-03-16T02:14:53;7.60;99.90
26081;DHT22;13991;51.174;4.438;2023-03-16T02:17:25;7.70;99.90
26081;DHT22;13991;51.174;4.438;2023-03-16T02:22:46;7.70;99.90
26081;DHT22;13991;51.174;4.438;2023-03-16T02:25:16;7.60;99.90
26081;DHT22;13991;51.174;4.438;2023-03-16T02:27:57;7.70;99.90
26081;DHT22;13991;51.174;4.438;2023-03-16T02:30:25;7.70;99.90
26081;DHT22;13991;51.174;4.438;2023-03-16T02:32:52;7.60;99.90
26081;DHT22;13991;51.174;4.438;2023-03-16T02:35:19;7.50;99.90
26081;DHT22;13991;51.174;4.438;2023-03-16T02:37:45;7.50;99.90
26081;DHT22;13991;51.174;4.438;2023-03-16T02:40:29;7.60;99.90
26081;DHT22;13991;51.174;4.438;2023-03-16T02:43:06;7.60;99.90
26081;DHT22;13991;51.174;4.438;2023-03-16T02:48:11;7.60;99.90
26081;DHT22;13991;51.174;4.438;2023-03-16T02:50:47;7.70;99.90
26081;DHT22;13991;51.174;4.438;2023-03-16T02:53:14;7.80;99.90
26081;DHT22;13991;51.174;4.438;2023-03-16T02:55:40;7.90;99.90
26081;DHT22;13991;51.174;4.438;2023-03-16T02:58:06;7.80;99.90
26081;DHT22;13991;51.174;4.438;2023-03-16T03:00:32;7.80;99.90
26081;DHT22;13991;51.174;4.438;2023-03-16T03:02:57;7.80;99.90
26081;DHT22;13991;51.174;4.438;2023-03-16T03:05:23;7.80;99.90
26081;DHT22;13991;51.174;4.438;2023-03-16T03:07:49;7.80;99.90
26081;DHT22;13991;51.174;4.438;2023-03-16T03:10:15;7.80;99.90
26081;DHT22;13991;51.174;4.438;2023-03-16T03:12:41;7.80;99.90
26081;DHT22;13991;51.174;4.438;2023-03-16T03:15:07;7.80;99.90
26081;DHT22;13991;51.174;4.438;2023-03-16T03:17:33;7.90;99.90
26081;DHT22;13991;51.174;4.438;2023-03-16T03:20:00;7.90;99.90
26081;DHT22;13991;51.174;4.438;2023-03-16T03:22:38;7.90;99.90
26081;DHT22;13991;51.174;4.438;2023-03-16T03:25:04;7.90;99.90
26081;DHT22;13991;51.174;4.438;2023-03-16T03:27:30;7.90;99.90
26081;DHT22;13991;51.174;4.438;2023-03-16T03:29:57;8.00;99.90
26081;DHT22;13991;51.174;4.438;2023-03-16T03:32:23;8.00;99.90
26081;DHT22;13991;51.174;4.438;2023-03-16T03:34:48;7.90;99.90
26081;DHT22;13991;51.174;4.438;2023-03-16T03:37:14;7.90;99.90
26081;DHT22;13991;51.174;4.438;2023-03-16T03:39:40;7.90;99.90
26081;DHT22;13991;51.174;4.438;2023-03-16T03:42:06;7.80;99.90
26081;DHT22;13991;51.174;4.438;2023-03-16T03:44:31;7.80;99.90
26081;DHT22;13991;51.174;4.438;2023-03-16T03:46:59;7.80;99.90
26081;DHT22;13991;51.174;4.438;2023-03-16T03:49:25;7.90;99.90
26081;DHT22;13991;51.174;4.438;2023-03-16T03:51:51;7.90;99.90
26081;DHT22;13991;51.174;4.438;2023-03-16T03:54:16;7.90;99.90
26081;DHT22;13991;51.174;4.438;2023-03-16T03:56:42;7.90;99.90
26081;DHT22;13991;51.174;4.438;2023-03-16T03:59:08;7.90;99.90
26081;DHT22;13991;51.174;4.438;2023-03-16T04:01:34;7.80;99.90
26081;DHT22;13991;51.174;4.438;2023-03-16T04:03:59;7.80;99.90
26081;DHT22;13991;51.174;4.438;2023-03-16T04:06:25;7.80;99.90
26081;DHT22;13991;51.174;4.438;2023-03-16T04:08:51;7.70;99.90
26081;DHT22;13991;51.174;4.438;2023-03-16T04:11:19;7.70;99.90
26081;DHT22;13991;51.174;4.438;2023-03-16T04:13:45;7.70;99.90
26081;DHT22;13991;51.174;4.438;2023-03-16T04:16:11;7.80;99.90
26081;DHT22;13991;51.174;4.438;2023-03-16T04:18:41;7.80;99.90
26081;DHT22;13991;51.174;4.438;2023-03-16T04:21:13;7.70;99.90
26081;DHT22;13991;51.174;4.438;2023-03-16T04:23:40;7.70;99.90
26081;DHT22;13991;51.174;4.438;2023-03-16T04:26:07;7.60;99.90
26081;DHT22;13991;51.174;4.438;2023-03-16T04:28:32;7.60;99.90
26081;DHT22;13991;51.174;4.438;2023-03-16T04:31:06;7.60;99.90
26081;DHT22;13991;51.174;4.438;2023-03-16T04:33:33;7.70;99.90
26081;DHT22;13991;51.174;4.438;2023-03-16T04:36:00;7.70;99.90
26081;DHT22;13991;51.174;4.438;2023-03-16T04:38:28;7.60;99.90
26081;DHT22;13991;51.174;4.438;2023-03-16T04:40:54;7.70;99.90
26081;DHT22;13991;51.174;4.438;2023-03-16T04:43:20;7.80;99.90
26081;DHT22;13991;51.174;4.438;2023-03-16T04:45:47;7.90;99.90
26081;DHT22;13991;51.174;4.438;2023-03-16T04:48:13;7.70;99.90
26081;DHT22;13991;51.174;4.438;2023-03-16T04:50:39;7.70;99.90
26081;DHT22;13991;51.174;4.438;2023-03-16T04:53:05;7.50;99.90
26081;DHT22;13991;51.174;4.438;2023-03-16T04:55:31;7.60;99.90
26081;DHT22;13991;51.174;4.438;2023-03-16T04:57:57;7.60;99.90
26081;DHT22;13991;51.174;4.438;2023-03-16T05:00:23;7.50;99.90
26081;DHT22;13991;51.174;4.438;2023-03-16T05:02:50;7.60;99.90
26081;DHT22;13991;51.174;4.438;2023-03-16T05:05:18;7.60;99.90
26081;DHT22;13991;51.174;4.438;2023-03-16T05:07:44;7.60;99.90
26081;DHT22;13991;51.174;4.438;2023-03-16T05:10:12;7.60;99.90
26081;DHT22;13991;51.174;4.438;2023-03-16T05:12:38;7.60;99.90
26081;DHT22;13991;51.174;4.438;2023-03-16T05:15:04;7.50;99.90
26081;DHT22;13991;51.174;4.438;2023-03-16T05:17:31;7.60;99.90
26081;DHT22;13991;51.174;4.438;2023-03-16T05:19:56;7.50;99.90
26081;DHT22;13991;51.174;4.438;2023-03-16T05:22:22;7.60;99.90
26081;DHT22;13991;51.174;4.438;2023-03-16T05:24:48;7.70;99.90
26081;DHT22;13991;51.174;4.438;2023-03-16T05:27:14;7.70;99.90
26081;DHT22;13991;51.174;4.438;2023-03-16T05:29:39;7.70;99.90
26081;DHT22;13991;51.174;4.438;2023-03-16T05:32:10;7.60;99.90
26081;DHT22;13991;51.174;4.438;2023-03-16T05:34:37;7.60;99.90
26081;DHT22;13991;51.174;4.438;2023-03-16T05:37:03;7.70;99.90
26081;DHT22;13991;51.174;4.438;2023-03-16T05:39:29;7.70;99.90
26081;DHT22;13991;51.174;4.438;2023-03-16T05:41:58;7.60;99.90
26081;DHT22;13991;51.174;4.438;2023-03-16T05:44:23;7.50;99.90
26081;DHT22;13991;51.174;4.438;2023-03-16T05:46:49;7.60;99.90
26081;DHT22;13991;51.174;4.438;2023-03-16T05:49:15;7.50;99.90
26081;DHT22;13991;51.174;4.438;2023-03-16T05:51:41;7.50;99.90
26081;DHT22;13991;51.174;4.438;2023-03-16T05:54:07;7.50;99.90
26081;DHT22;13991;51.174;4.438;2023-03-16T05:56:32;7.60;99.90
26081;DHT22;13991;51.174;4.438;2023-03-16T05:58:58;7.70;99.90
26081;DHT22;13991;51.174;4.438;2023-03-16T06:01:25;7.50;99.90
26081;DHT22;13991;51.174;4.438;2023-03-16T06:03:51;7.60;99.90
26081;DHT22;13991;51.174;4.438;2023-03-16T06:06:20;7.60;99.90
26081;DHT22;13991;51.174;4.438;2023-03-16T06:08:47;7.60;99.90
26081;DHT22;13991;51.174;4.438;2023-03-16T06:11:13;7.60;99.90
26081;DHT22;13991;51.174;4.438;2023-03-16T06:13:39;7.60;99.90
26081;DHT22;13991;51.174;4.438;2023-03-16T06:16:05;7.70;99.90
26081;DHT22;13991;51.174;4.438;2023-03-16T06:18:32;7.80;99.90
26081;DHT22;13991;51.174;4.438;2023-03-16T06:20:58;7.80;99.90
26081;DHT22;13991;51.174;4.438;2023-03-16T06:23:24;7.80;99.90
26081;DHT22;13991;51.174;4.438;2023-03-16T06:25:50;7.80;99.90
26081;DHT22;13991;51.174;4.438;2023-03-16T06:28:18;7.80;99.90
26081;DHT22;13991;51.174;4.438;2023-03-16T06:30:44;7.80;99.90
26081;DHT22;13991;51.174;4.438;2023-03-16T06:33:10;7.80;99.90
26081;DHT22;13991;51.174;4.438;2023-03-16T06:35:35;7.80;99.90
26081;DHT22;13991;51.174;4.438;2023-03-16T06:38:01;7.80;99.90
26081;DHT22;13991;51.174;4.438;2023-03-16T06:40:27;7.80;99.90
26081;DHT22;13991;51.174;4.438;2023-03-16T06:42:52;7.90;99.90
26081;DHT22;13991;51.174;4.438;2023-03-16T06:45:18;8.00;99.90
26081;DHT22;13991;51.174;4.438;2023-03-16T06:47:47;8.10;99.90
26081;DHT22;13991;51.174;4.438;2023-03-16T06:50:13;8.10;99.90
26081;DHT22;13991;51.174;4.438;2023-03-16T06:52:39;8.20;99.90
26081;DHT22;13991;51.174;4.438;2023-03-16T06:55:06;8.10;99.90
26081;DHT22;13991;51.174;4.438;2023-03-16T06:57:32;8.10;99.90
26081;DHT22;13991;51.174;4.438;2023-03-16T06:59:58;8.10;99.90
26081;DHT22;13991;51.174;4.438;2023-03-16T07:02:24;8.10;99.90
26081;DHT22;13991;51.174;4.438;2023-03-16T07:04:50;8.00;99.90
26081;DHT22;13991;51.174;4.438;2023-03-16T07:07:15;8.00;99.90
26081;DHT22;13991;51.174;4.438;2023-03-16T07:09:42;7.90;99.90
26081;DHT22;13991;51.174;4.438;2023-03-16T07:12:08;8.00;99.90
26081;DHT22;13991;51.174;4.438;2023-03-16T07:14:34;8.10;99.90
26081;DHT22;13991;51.174;4.438;2023-03-16T07:17:00;8.10;99.90
26081;DHT22;13991;51.174;4.438;2023-03-16T07:19:26;8.10;99.90
26081;DHT22;13991;51.174;4.438;2023-03-16T07:21:52;8.10;99.90
26081;DHT22;13991;51.174;4.438;2023-03-16T07:24:18;8.10;99.90
26081;DHT22;13991;51.174;4.438;2023-03-16T07:26:44;8.10;99.90
26081;DHT22;13991;51.174;4.438;2023-03-16T07:29:11;8.10;99.90
26081;DHT22;13991;51.174;4.438;2023-03-16T07:31:37;8.20;99.90
26081;DHT22;13991;51.174;4.438;2023-03-16T07:34:03;8.30;99.90
26081;DHT22;13991;51.174;4.438;2023-03-16T07:36:29;8.40;99.90
26081;DHT22;13991;51.174;4.438;2023-03-16T07:38:54;8.30;99.90
26081;DHT22;13991;51.174;4.438;2023-03-16T07:41:20;8.30;99.90
26081;DHT22;13991;51.174;4.438;2023-03-16T07:43:46;8.40;99.90
26081;DHT22;13991;51.174;4.438;2023-03-16T07:46:12;8.50;99.90
26081;DHT22;13991;51.174;4.438;2023-03-16T07:48:39;8.60;99.90
26081;DHT22;13991;51.174;4.438;2023-03-16T07:51:07;8.60;99.90
26081;DHT22;13991;51.174;4.438;2023-03-16T07:53:33;8.70;99.90
26081;DHT22;13991;51.174;4.438;2023-03-16T07:55:59;8.70;99.90
26081;DHT22;13991;51.174;4.438;2023-03-16T07:58:26;8.70;99.90
26081;DHT22;13991;51.174;4.438;2023-03-16T08:00:55;8.80;99.90
26081;DHT22;13991;51.174;4.438;2023-03-16T08:03:21;8.90;99.90
26081;DHT22;13991;51.174;4.438;2023-03-16T08:05:47;9.00;99.90
26081;DHT22;13991;51.174;4.438;2023-03-16T08:08:13;9.20;99.90
26081;DHT22;13991;51.174;4.438;2023-03-16T08:10:40;9.40;99.90
26081;DHT22;13991;51.174;4.438;2023-03-16T08:13:06;9.60;99.90
26081;DHT22;13991;51.174;4.438;2023-03-16T08:15:32;9.80;99.90
26081;DHT22;13991;51.174;4.438;2023-03-16T08:17:58;9.70;99.90
26081;DHT22;13991;51.174;4.438;2023-03-16T08:20:27;9.60;99.90
26081;DHT22;13991;51.174;4.438;2023-03-16T08:22:53;9.50;99.90
26081;DHT22;13991;51.174;4.438;2023-03-16T08:25:19;9.50;99.90
26081;DHT22;13991;51.174;4.438;2023-03-16T08:27:45;9.60;99.90
26081;DHT22;13991;51.174;4.438;2023-03-16T08:30:14;9.70;99.90
26081;DHT22;13991;51.174;4.438;2023-03-16T08:32:40;9.70;99.90
26081;DHT22;13991;51.174;4.438;2023-03-16T08:35:11;9.80;99.90
26081;DHT22;13991;51.174;4.438;2023-03-16T08:37:41;9.90;99.90
26081;DHT22;13991;51.174;4.438;2023-03-16T08:40:10;10.00;99.90
26081;DHT22;13991;51.174;4.438;2023-03-16T08:42:41;10.10;99.90
26081;DHT22;13991;51.174;4.438;2023-03-16T08:45:09;10.20;99.90
26081;DHT22;13991;51.174;4.438;2023-03-16T08:47:35;10.10;99.90
26081;DHT22;13991;51.174;4.438;2023-03-16T08:50:03;10.20;99.90
26081;DHT22;13991;51.174;4.438;2023-03-16T08:52:30;10.40;99.90
26081;DHT22;13991;51.174;4.438;2023-03-16T08:54:56;10.50;99.90
26081;DHT22;13991;51.174;4.438;2023-03-16T08:57:22;10.70;99.90
26081;DHT22;13991;51.174;4.438;2023-03-16T08:59:48;10.90;99.90
26081;DHT22;13991;51.174;4.438;2023-03-16T09:02:15;11.00;99.90
26081;DHT22;13991;51.174;4.438;2023-03-16T09:04:41;11.20;99.90
26081;DHT22;13991;51.174;4.438;2023-03-16T09:07:07;11.30;99.90
26081;DHT22;13991;51.174;4.438;2023-03-16T09:09:33;11.30;99.90
26081;DHT22;13991;51.174;4.438;2023-03-16T09:12:00;11.40;99.90
26081;DHT22;13991;51.174;4.438;2023-03-16T09:14:26;11.30;99.90
26081;DHT22;13991;51.174;4.438;2023-03-16T09:16:52;11.20;99.90
26081;DHT22;13991;51.174;4.438;2023-03-16T09:19:18;11.30;99.90
26081;DHT22;13991;51.174;4.438;2023-03-16T09:21:45;11.50;99.90
26081;DHT22;13991;51.174;4.438;2023-03-16T09:24:11;11.60;99.90
26081;DHT22;13991;51.174;4.438;2023-03-16T09:26:38;11.90;99.90
26081;DHT22;13991;51.174;4.438;2023-03-16T09:29:05;11.90;99.90
26081;DHT22;13991;51.174;4.438;2023-03-16T09:31:31;11.80;99.90
26081;DHT22;13991;51.174;4.438;2023-03-16T09:33:58;11.90;99.90
26081;DHT22;13991;51.174;4.438;2023-03-16T09:36:25;11.90;99.90
26081;DHT22;13991;51.174;4.438;2023-03-16T09:38:51;11.90;99.90
26081;DHT22;13991;51.174;4.438;2023-03-16T09:41:40;11.90;99.90
26081;DHT22;13991;51.174;4.438;2023-03-16T09:44:31;11.80;99.90
26081;DHT22;13991;51.174;4.438;2023-03-16T09:47:00;11.90;99.90
26081;DHT22;13991;51.174;4.438;2023-03-16T09:49:34;12.20;99.90
26081;DHT22;13991;51.174;4.438;2023-03-16T09:55:25;12.30;99.90
26081;DHT22;13991;51.174;4.438;2023-03-16T09:57:53;12.30;99.90
26081;DHT22;13991;51.174;4.438;2023-03-16T10:05:22;12.20;99.90
26081;DHT22;13991;51.174;4.438;2023-03-16T10:13:32;12.50;99.90
26081;DHT22;13991;51.174;4.438;2023-03-16T10:16:06;12.20;99.90
26081;DHT22;13991;51.174;4.438;2023-03-16T10:18:39;12.20;99.90
26081;DHT22;13991;51.174;4.438;2023-03-16T10:21:14;12.40;99.90
26081;DHT22;13991;51.174;4.438;2023-03-16T10:23:41;12.70;99.90
26081;DHT22;13991;51.174;4.438;2023-03-16T10:26:27;13.10;99.90
26081;DHT22;13991;51.174;4.438;2023-03-16T10:28:55;13.40;99.90
26081;DHT22;13991;51.174;4.438;2023-03-16T10:31:22;13.40;99.90
26081;DHT22;13991;51.174;4.438;2023-03-16T10:33:52;13.40;99.90
26081;DHT22;13991;51.174;4.438;2023-03-16T10:36:30;13.50;99.90
26081;DHT22;13991;51.174;4.438;2023-03-16T10:39:06;13.50;99.90
26081;DHT22;13991;51.174;4.438;2023-03-16T10:41:34;13.60;99.90
26081;DHT22;13991;51.174;4.438;2023-03-16T10:44:11;13.70;99.90
26081;DHT22;13991;51.174;4.438;2023-03-16T10:49:36;13.80;99.90
26081;DHT22;13991;51.174;4.438;2023-03-16T10:54:49;14.10;99.10
26081;DHT22;13991;51.174;4.438;2023-03-16T10:57:25;14.60;98.80
26081;DHT22;13991;51.174;4.438;2023-03-16T10:59:53;14.90;97.00
26081;DHT22;13991;51.174;4.438;2023-03-16T11:02:33;15.00;96.90
26081;DHT22;13991;51.174;4.438;2023-03-16T11:05:11;14.60;96.80
26081;DHT22;13991;51.174;4.438;2023-03-16T11:07:37;14.40;96.60
26081;DHT22;13991;51.174;4.438;2023-03-16T11:10:33;14.20;97.60
26081;DHT22;13991;51.174;4.438;2023-03-16T11:13:05;14.10;97.60
26081;DHT22;13991;51.174;4.438;2023-03-16T11:18:40;14.20;97.90
26081;DHT22;13991;51.174;4.438;2023-03-16T11:21:19;14.40;98.00
26081;DHT22;13991;51.174;4.438;2023-03-16T11:23:49;14.60;97.70
26081;DHT22;13991;51.174;4.438;2023-03-16T11:26:37;14.80;96.70
26081;DHT22;13991;51.174;4.438;2023-03-16T11:29:26;14.90;96.10
26081;DHT22;13991;51.174;4.438;2023-03-16T11:31:55;14.90;95.20
26081;DHT22;13991;51.174;4.438;2023-03-16T11:34:29;14.70;95.80
26081;DHT22;13991;51.174;4.438;2023-03-16T11:37:22;15.00;95.60
26081;DHT22;13991;51.174;4.438;2023-03-16T11:50:18;14.80;94.00
26081;DHT22;13991;51.174;4.438;2023-03-16T11:56:05;15.00;93.60
26081;DHT22;13991;51.174;4.438;2023-03-16T12:04:38;14.90;94.00
26081;DHT22;13991;51.174;4.438;2023-03-16T12:09:54;15.80;91.20
26081;DHT22;13991;51.174;4.438;2023-03-16T12:17:36;15.90;88.90
26081;DHT22;13991;51.174;4.438;2023-03-16T12:20:27;15.90;89.90
26081;DHT22;13991;51.174;4.438;2023-03-16T12:23:01;15.80;90.30
26081;DHT22;13991;51.174;4.438;2023-03-16T12:25:35;15.80;85.90
26081;DHT22;13991;51.174;4.438;2023-03-16T12:28:09;15.80;86.80
26081;DHT22;13991;51.174;4.438;2023-03-16T12:33:21;15.80;86.30
26081;DHT22;13991;51.174;4.438;2023-03-16T12:38:51;15.70;86.00
26081;DHT22;13991;51.174;4.438;2023-03-16T12:41:26;15.90;86.00
26081;DHT22;13991;51.174;4.438;2023-03-16T12:46:44;15.70;83.80
26081;DHT22;13991;51.174;4.438;2023-03-16T12:49:13;15.60;85.50
26081;DHT22;13991;51.174;4.438;2023-03-16T12:51:42;15.70;86.60
26081;DHT22;13991;51.174;4.438;2023-03-16T12:54:22;15.70;83.50
26081;DHT22;13991;51.174;4.438;2023-03-16T12:56:50;15.60;84.40
26081;DHT22;13991;51.174;4.438;2023-03-16T12:59:24;15.70;82.70
26081;DHT22;13991;51.174;4.438;2023-03-16T13:02:01;16.00;83.50
26081;DHT22;13991;51.174;4.438;2023-03-16T13:04:42;16.20;80.70
26081;DHT22;13991;51.174;4.438;2023-03-16T13:07:16;16.50;82.60
26081;DHT22;13991;51.174;4.438;2023-03-16T13:09:53;16.40;82.20
26081;DHT22;13991;51.174;4.438;2023-03-16T13:12:27;16.70;80.50
26081;DHT22;13991;51.174;4.438;2023-03-16T13:14:54;16.70;80.40
26081;DHT22;13991;51.174;4.438;2023-03-16T13:17:27;16.50;79.10
26081;DHT22;13991;51.174;4.438;2023-03-16T13:23:17;16.30;77.40
26081;DHT22;13991;51.174;4.438;2023-03-16T13:28:29;16.20;78.10
26081;DHT22;13991;51.174;4.438;2023-03-16T13:30:57;16.10;78.10
26081;DHT22;13991;51.174;4.438;2023-03-16T13:33:30;16.10;79.20
26081;DHT22;13991;51.174;4.438;2023-03-16T13:35:59;16.50;78.80
26081;DHT22;13991;51.174;4.438;2023-03-16T13:38:26;16.50;78.60
26081;DHT22;13991;51.174;4.438;2023-03-16T13:40:55;16.60;77.70
26081;DHT22;13991;51.174;4.438;2023-03-16T13:43:24;16.50;76.10
26081;DHT22;13991;51.174;4.438;2023-03-16T13:45:50;16.30;78.00
26081;DHT22;13991;51.174;4.438;2023-03-16T13:48:17;16.40;76.60
26081;DHT22;13991;51.174;4.438;2023-03-16T13:50:43;16.40;75.00
26081;DHT22;13991;51.174;4.438;2023-03-16T13:53:30;16.60;75.00
26081;DHT22;13991;51.174;4.438;2023-03-16T13:55:58;16.70;76.10
26081;DHT22;13991;51.174;4.438;2023-03-16T13:58:30;16.80;75.10
26081;DHT22;13991;51.174;4.438;2023-03-16T14:00:59;16.90;76.00
26081;DHT22;13991;51.174;4.438;2023-03-16T14:03:37;17.00;75.50
26081;DHT22;13991;51.174;4.438;2023-03-16T14:06:04;16.80;74.40
26081;DHT22;13991;51.174;4.438;2023-03-16T14:08:31;16.80;75.10
26081;DHT22;13991;51.174;4.438;2023-03-16T14:10:58;16.50;73.50
26081;DHT22;13991;51.174;4.438;2023-03-16T14:13:31;16.50;74.40
26081;DHT22;13991;51.174;4.438;2023-03-16T14:18:35;16.40;74.00
26081;DHT22;13991;51.174;4.438;2023-03-16T14:21:06;16.30;74.30
26081;DHT22;13991;51.174;4.438;2023-03-16T14:23:40;16.50;75.00
26081;DHT22;13991;51.174;4.438;2023-03-16T14:26:12;16.50;74.10
26081;DHT22;13991;51.174;4.438;2023-03-16T14:28:38;16.50;74.90
26081;DHT22;13991;51.174;4.438;2023-03-16T14:31:12;16.50;73.50
26081;DHT22;13991;51.174;4.438;2023-03-16T14:33:43;16.50;73.70
26081;DHT22;13991;51.174;4.438;2023-03-16T14:36:17;16.50;74.40
26081;DHT22;13991;51.174;4.438;2023-03-16T14:38:45;16.60;73.70
26081;DHT22;13991;51.174;4.438;2023-03-16T14:41:32;16.60;73.90
26081;DHT22;13991;51.174;4.438;2023-03-16T14:43:59;16.70;74.40
26081;DHT22;13991;51.174;4.438;2023-03-16T14:46:37;16.70;73.50
26081;DHT22;13991;51.174;4.438;2023-03-16T14:49:08;17.10;72.30
26081;DHT22;13991;51.174;4.438;2023-03-16T14:51:39;17.00;73.20
26081;DHT22;13991;51.174;4.438;2023-03-16T14:54:13;17.20;73.80
26081;DHT22;13991;51.174;4.438;2023-03-16T14:56:39;17.40;72.70
26081;DHT22;13991;51.174;4.438;2023-03-16T14:59:06;17.50;70.90
26081;DHT22;13991;51.174;4.438;2023-03-16T15:01:33;17.70;70.20
26081;DHT22;13991;51.174;4.438;2023-03-16T15:03:59;17.60;71.00
26081;DHT22;13991;51.174;4.438;2023-03-16T15:06:25;18.00;70.00
26081;DHT22;13991;51.174;4.438;2023-03-16T15:08:52;18.30;68.20
26081;DHT22;13991;51.174;4.438;2023-03-16T15:11:19;18.10;69.70
26081;DHT22;13991;51.174;4.438;2023-03-16T15:13:49;18.00;70.40
26081;DHT22;13991;51.174;4.438;2023-03-16T15:16:14;18.10;71.50
26081;DHT22;13991;51.174;4.438;2023-03-16T15:18:41;18.20;68.30
26081;DHT22;13991;51.174;4.438;2023-03-16T15:21:12;18.10;67.90
26081;DHT22;13991;51.174;4.438;2023-03-16T15:23:39;17.90;70.50
26081;DHT22;13991;51.174;4.438;2023-03-16T15:26:12;17.80;71.40
26081;DHT22;13991;51.174;4.438;2023-03-16T15:28:38;18.00;69.90
26081;DHT22;13991;51.174;4.438;2023-03-16T15:31:04;18.10;69.70
26081;DHT22;13991;51.174;4.438;2023-03-16T15:33:30;18.10;66.40
26081;DHT22;13991;51.174;4.438;2023-03-16T15:35:58;18.10;66.90
26081;DHT22;13991;51.174;4.438;2023-03-16T15:38:27;17.90;68.20
26081;DHT22;13991;51.174;4.438;2023-03-16T15:40:53;17.90;68.50
26081;DHT22;13991;51.174;4.438;2023-03-16T15:43:21;17.60;69.00
26081;DHT22;13991;51.174;4.438;2023-03-16T15:45:48;17.40;70.30
26081;DHT22;13991;51.174;4.438;2023-03-16T15:48:14;17.30;70.40
26081;DHT22;13991;51.174;4.438;2023-03-16T15:50:45;17.20;71.10
26081;DHT22;13991;51.174;4.438;2023-03-16T15:53:35;17.20;70.10
26081;DHT22;13991;51.174;4.438;2023-03-16T15:56:06;17.20;71.30
26081;DHT22;13991;51.174;4.438;2023-03-16T15:58:33;17.40;70.00
26081;DHT22;13991;51.174;4.438;2023-03-16T16:01:02;17.30;70.50
26081;DHT22;13991;51.174;4.438;2023-03-16T16:03:29;17.20;71.20
26081;DHT22;13991;51.174;4.438;2023-03-16T16:05:55;17.00;72.20
26081;DHT22;13991;51.174;4.438;2023-03-16T16:08:21;16.80;73.30
26081;DHT22;13991;51.174;4.438;2023-03-16T16:10:48;16.80;73.40
26081;DHT22;13991;51.174;4.438;2023-03-16T16:13:32;16.70;74.00
26081;DHT22;13991;51.174;4.438;2023-03-16T16:15:58;16.80;76.40
26081;DHT22;13991;51.174;4.438;2023-03-16T16:18:32;16.70;73.80
26081;DHT22;13991;51.174;4.438;2023-03-16T16:21:02;16.50;74.40
26081;DHT22;13991;51.174;4.438;2023-03-16T16:23:28;16.60;72.80
26081;DHT22;13991;51.174;4.438;2023-03-16T16:25:59;16.90;71.20
26081;DHT22;13991;51.174;4.438;2023-03-16T16:28:29;16.80;70.60
26081;DHT22;13991;51.174;4.438;2023-03-16T16:30:55;16.50;71.90
26081;DHT22;13991;51.174;4.438;2023-03-16T16:33:30;16.30;73.90
26081;DHT22;13991;51.174;4.438;2023-03-16T16:35:58;16.30;73.50
26081;DHT22;13991;51.174;4.438;2023-03-16T16:38:24;16.20;75.50
26081;DHT22;13991;51.174;4.438;2023-03-16T16:40:51;16.10;75.40
26081;DHT22;13991;51.174;4.438;2023-03-16T16:43:23;16.00;75.10
26081;DHT22;13991;51.174;4.438;2023-03-16T16:45:51;15.90;75.00
26081;DHT22;13991;51.174;4.438;2023-03-16T16:48:32;15.70;75.80
26081;DHT22;13991;51.174;4.438;2023-03-16T16:50:59;15.70;77.00
26081;DHT22;13991;51.174;4.438;2023-03-16T16:53:26;15.60;78.10
26081;DHT22;13991;51.174;4.438;2023-03-16T16:55:52;15.50;79.70
26081;DHT22;13991;51.174;4.438;2023-03-16T16:58:19;15.30;78.70
26081;DHT22;13991;51.174;4.438;2023-03-16T17:00:49;15.20;80.00
26081;DHT22;13991;51.174;4.438;2023-03-16T17:03:24;15.20;80.20
26081;DHT22;13991;51.174;4.438;2023-03-16T17:05:51;15.10;80.60
26081;DHT22;13991;51.174;4.438;2023-03-16T17:08:17;15.10;81.20